createdAt,value
2018-08-27T00:00:52.536Z,97212.05
2018-08-27T00:03:21.196Z,97211.61
2018-08-27T00:05:49.760Z,97213.14
2018-08-27T00:08:18.299Z,97219.07
2018-08-27T00:10:46.961Z,97221.42
2018-08-27T00:13:15.565Z,97213.94
2018-08-27T00:15:44.131Z,97217.49
2018-08-27T00:18:12.720Z,97218.15
2018-08-27T00:20:41.271Z,97214.59
2018-08-27T00:23:09.831Z,97223.18
2018-08-27T00:25:38.395Z,97220.52
2018-08-27T00:28:06.956Z,97217.42
2018-08-27T00:30:35.491Z,97220.88
2018-08-27T00:33:04.176Z,97230.73
2018-08-27T00:35:32.733Z,97228.36
2018-08-27T00:38:01.311Z,97223.72
2018-08-27T00:40:29.919Z,97218.72
2018-08-27T00:42:58.471Z,97212.95
2018-08-27T00:45:27.027Z,97210.03
2018-08-27T00:47:55.596Z,97215.96
2018-08-27T00:50:24.157Z,97212.58
2018-08-27T00:52:52.711Z,97213.34
2018-08-27T00:55:21.299Z,97210.58
2018-08-27T00:57:50.131Z,97213.31
2018-08-27T01:00:18.760Z,97211.48
2018-08-27T01:02:47.429Z,97206.20
2018-08-27T01:05:15.984Z,97208.66
2018-08-27T01:07:44.535Z,97209.03
2018-08-27T01:10:13.120Z,97206.94
2018-08-27T01:12:41.740Z,97204.20
2018-08-27T01:15:10.312Z,97206.11
2018-08-27T01:17:39.223Z,97196.73
2018-08-27T01:20:07.820Z,97199.08
2018-08-27T01:22:36.456Z,97194.97
2018-08-27T01:25:05.064Z,97192.39
2018-08-27T01:27:33.607Z,97196.87
2018-08-27T01:30:02.156Z,97193.84
2018-08-27T01:32:31.144Z,97187.91
2018-08-27T01:35:00.248Z,97187.94
2018-08-27T01:37:28.799Z,97189.29
2018-08-27T01:39:57.560Z,97188.94
2018-08-27T01:42:27.088Z,97196.87
2018-08-27T01:44:56.423Z,97189.88
2018-08-27T01:47:25.094Z,97182.30
2018-08-27T01:49:53.687Z,97184.51
2018-08-27T01:52:22.232Z,97179.41
2018-08-27T01:54:50.811Z,97179.88
2018-08-27T01:57:19.369Z,97182.97
2018-08-27T01:59:47.947Z,97173.84
2018-08-27T02:02:16.657Z,97178.22
2018-08-27T02:04:45.208Z,97169.28
2018-08-27T02:07:13.755Z,97168.75
2018-08-27T02:09:42.584Z,97165.82
2018-08-27T02:12:11.160Z,97167.38
2018-08-27T02:14:39.707Z,97157.34
2018-08-27T02:17:08.439Z,97154.53
2018-08-27T02:19:36.996Z,97155.89
2018-08-27T02:22:05.928Z,97151.79
2018-08-27T02:24:34.517Z,97146.77
2018-08-27T02:27:03.076Z,97143.30
2018-08-27T02:29:31.653Z,97147.14
2018-08-27T02:32:00.230Z,97141.76
2018-08-27T02:34:28.777Z,97153.15
2018-08-27T02:36:57.331Z,97149.02
2018-08-27T02:39:25.995Z,97147.21
2018-08-27T02:41:54.531Z,97147.03
2018-08-27T02:44:23.083Z,97149.84
2018-08-27T02:46:51.943Z,97148.00
2018-08-27T02:49:20.533Z,97144.17
2018-08-27T02:51:49.071Z,97139.17
2018-08-27T02:54:17.736Z,97144.81
2018-08-27T02:56:46.291Z,97141.23
2018-08-27T02:59:14.895Z,97140.78
2018-08-27T03:01:43.696Z,97136.08
2018-08-27T03:04:12.252Z,97140.73
2018-08-27T03:06:40.816Z,97136.64
2018-08-27T03:09:10.355Z,97140.73
2018-08-27T03:11:38.900Z,97137.47
2018-08-27T03:14:07.555Z,97138.67
2018-08-27T03:16:36.285Z,97136.00
2018-08-27T03:19:04.880Z,97131.90
2018-08-27T03:21:33.432Z,97130.51
2018-08-27T03:24:02.099Z,97135.17
2018-08-27T03:26:30.651Z,97130.51
2018-08-27T03:28:59.199Z,97133.39
2018-08-27T03:31:27.876Z,97130.38
2018-08-27T03:33:56.419Z,97131.39
2018-08-27T03:36:24.977Z,97136.84
2018-08-27T03:38:53.596Z,97135.30
2018-08-27T03:41:22.163Z,97134.67
2018-08-27T03:43:50.720Z,97133.77
2018-08-27T03:46:19.379Z,97137.16
2018-08-27T03:48:47.927Z,97136.25
2018-08-27T03:51:16.595Z,97137.04
2018-08-27T03:53:45.255Z,97137.61
2018-08-27T03:56:13.890Z,97133.77
2018-08-27T03:58:42.467Z,97131.33
2018-08-27T04:01:11.096Z,97123.66
2018-08-27T04:03:39.644Z,97127.37
2018-08-27T04:06:08.189Z,97123.36
2018-08-27T04:08:37.072Z,97120.53
2018-08-27T04:11:05.895Z,97133.13
2018-08-27T04:13:34.451Z,97125.58
2018-08-27T04:16:03.335Z,97125.47
2018-08-27T04:18:31.880Z,97133.81
2018-08-27T04:21:00.428Z,97143.81
2018-08-27T04:23:29.399Z,97144.45
2018-08-27T04:25:57.947Z,97147.27
2018-08-27T04:28:26.504Z,97143.92
2018-08-27T04:30:55.079Z,97154.30
2018-08-27T04:33:23.627Z,97154.56
2018-08-27T04:35:52.165Z,97144.38
2018-08-27T04:38:20.839Z,97144.71
2018-08-27T04:40:49.382Z,97143.44
2018-08-27T04:43:18.020Z,97137.98
2018-08-27T04:45:46.688Z,97132.48
2018-08-27T04:48:15.243Z,97134.02
2018-08-27T04:50:43.830Z,97138.05
2018-08-27T04:53:12.712Z,97141.64
2018-08-27T04:55:41.271Z,97143.09
2018-08-27T04:58:09.823Z,97143.81
2018-08-27T05:00:42.190Z,97142.53
2018-08-27T05:03:11.559Z,97140.27
2018-08-27T05:05:40.106Z,97136.77
2018-08-27T05:08:08.769Z,97149.62
2018-08-27T05:10:37.346Z,97156.45
2018-08-27T05:13:05.947Z,97152.62
2018-08-27T05:15:34.783Z,97151.48
2018-08-27T05:18:03.331Z,97151.20
2018-08-27T05:20:31.880Z,97150.75
2018-08-27T05:23:00.444Z,97154.73
2018-08-27T05:25:28.993Z,97154.70
2018-08-27T05:27:57.547Z,97156.69
2018-08-27T05:30:26.123Z,97157.05
2018-08-27T05:32:54.680Z,97152.51
2018-08-27T05:35:23.222Z,97151.54
2018-08-27T05:37:51.909Z,97156.74
2018-08-27T05:40:20.466Z,97154.61
2018-08-27T05:42:49.059Z,97160.44
2018-08-27T05:45:17.675Z,97157.83
2018-08-27T05:47:46.237Z,97159.27
2018-08-27T05:50:14.812Z,97164.11
2018-08-27T05:52:43.412Z,97158.16
2018-08-27T05:55:11.933Z,97166.30
2018-08-27T05:57:40.506Z,97162.17
2018-08-27T06:00:09.492Z,97161.32
2018-08-27T06:02:38.040Z,97161.46
2018-08-27T06:05:06.608Z,97160.60
2018-08-27T06:07:35.208Z,97167.26
2018-08-27T06:10:03.858Z,97170.70
2018-08-27T06:12:32.407Z,97169.17
2018-08-27T06:15:01.012Z,97162.91
2018-08-27T06:17:29.576Z,97163.06
2018-08-27T06:19:58.123Z,97165.17
2018-08-27T06:22:26.808Z,97165.55
2018-08-27T06:24:55.380Z,97167.40
2018-08-27T06:27:23.949Z,97165.00
2018-08-27T06:29:52.543Z,97168.39
2018-08-27T06:32:21.109Z,97169.15
2018-08-27T06:34:49.675Z,97169.95
2018-08-27T06:37:18.567Z,97174.11
2018-08-27T06:39:47.123Z,97174.52
2018-08-27T06:42:15.691Z,97170.50
2018-08-27T06:44:44.384Z,97169.77
2018-08-27T06:47:12.956Z,97163.10
2018-08-27T06:49:41.512Z,97171.25
2018-08-27T06:52:10.199Z,97172.40
2018-08-27T06:54:38.735Z,97173.59
2018-08-27T06:57:07.276Z,97175.95
2018-08-27T06:59:35.898Z,97171.88
2018-08-27T07:02:04.472Z,97172.56
2018-08-27T07:04:33.013Z,97175.28
2018-08-27T07:07:01.584Z,97171.42
2018-08-27T07:09:30.144Z,97173.52
2018-08-27T07:11:58.696Z,97173.76
2018-08-27T07:14:27.295Z,97171.79
2018-08-27T07:16:55.852Z,97166.06
2018-08-27T07:19:24.422Z,97173.45
2018-08-27T07:21:52.987Z,97170.52
2018-08-27T07:24:21.616Z,97175.02
2018-08-27T07:26:50.237Z,97170.10
2018-08-27T07:29:18.824Z,97169.64
2018-08-27T07:31:47.383Z,97174.21
2018-08-27T07:34:15.932Z,97178.99
2018-08-27T07:36:44.875Z,97180.28
2018-08-27T07:39:13.363Z,97187.63
2018-08-27T07:41:42.182Z,97193.89
2018-08-27T07:44:10.859Z,97196.99
2018-08-27T07:46:39.416Z,97189.88
2018-08-27T07:49:07.972Z,97194.55
2018-08-27T07:51:36.567Z,97189.74
2018-08-27T07:54:05.140Z,97192.67
2018-08-27T07:56:33.729Z,97193.61
2018-08-27T07:59:02.416Z,97193.73
2018-08-27T08:01:30.983Z,97181.91
2018-08-27T08:03:59.550Z,97183.54
2018-08-27T08:06:28.339Z,97191.94
2018-08-27T08:08:56.960Z,97190.91
2018-08-27T08:11:25.529Z,97199.45
2018-08-27T08:13:54.107Z,97198.75
2018-08-27T08:16:22.678Z,97195.45
2018-08-27T08:18:51.248Z,97191.45
2018-08-27T08:21:20.135Z,97185.70
2018-08-27T08:23:48.723Z,97186.30
2018-08-27T08:26:17.275Z,97187.11
2018-08-27T08:28:46.220Z,97190.61
2018-08-27T08:31:14.812Z,97194.80
2018-08-27T08:33:43.418Z,97194.24
2018-08-27T08:36:11.975Z,97197.40
2018-08-27T08:38:40.532Z,97190.86
2018-08-27T08:41:09.390Z,97190.13
2018-08-27T08:43:38.203Z,97197.03
2018-08-27T08:46:06.759Z,97195.74
2018-08-27T08:48:35.324Z,97196.79
2018-08-27T08:51:04.267Z,97202.63
2018-08-27T08:53:32.868Z,97202.87
2018-08-27T08:56:01.578Z,97208.04
2018-08-27T08:58:30.447Z,97219.84
2018-08-27T09:00:59.045Z,97215.14
2018-08-27T09:03:27.652Z,97205.66
2018-08-27T09:05:56.256Z,97208.16
2018-08-27T09:08:24.850Z,97211.06
2018-08-27T09:10:53.435Z,97204.77
2018-08-27T09:13:22.361Z,97211.34
2018-08-27T09:15:50.916Z,97211.72
2018-08-27T09:18:19.471Z,97206.23
2018-08-27T09:20:48.063Z,97214.45
2018-08-27T09:23:16.628Z,97210.35
2018-08-27T09:25:45.181Z,97209.55
2018-08-27T09:28:13.839Z,97210.21
2018-08-27T09:30:42.384Z,97208.69
2018-08-27T09:33:11.093Z,97202.96
2018-08-27T09:35:39.621Z,97211.46
2018-08-27T09:38:08.248Z,97212.15
2018-08-27T09:40:36.812Z,97205.13
2018-08-27T09:43:05.512Z,97206.64
2018-08-27T09:45:34.118Z,97208.97
2018-08-27T09:48:03.050Z,97200.00
2018-08-27T09:50:32.432Z,97210.64
2018-08-27T09:53:01.385Z,97213.29
2018-08-27T09:55:29.876Z,97211.56
2018-08-27T09:57:58.491Z,97217.44
2018-08-27T10:00:32.383Z,97209.56
2018-08-27T10:03:01.183Z,97214.28
2018-08-27T10:05:29.748Z,97213.53
2018-08-27T10:07:58.307Z,97214.28
2018-08-27T10:10:27.156Z,97219.63
2018-08-27T10:12:55.714Z,97211.42
2018-08-27T10:15:24.274Z,97208.07
2018-08-27T10:17:52.859Z,97209.34
2018-08-27T10:20:21.416Z,97213.48
2018-08-27T10:22:49.976Z,97211.06
2018-08-27T10:25:18.963Z,97213.82
2018-08-27T10:27:47.521Z,97214.72
2018-08-27T10:30:16.092Z,97214.39
2018-08-27T10:32:44.761Z,97214.61
2018-08-27T10:35:13.331Z,97209.27
2018-08-27T10:37:41.890Z,97214.84
2018-08-27T10:40:10.487Z,97206.16
2018-08-27T10:42:39.051Z,97200.59
2018-08-27T10:45:07.684Z,97205.36
2018-08-27T10:47:36.535Z,97204.42
2018-08-27T10:50:05.133Z,97197.06
2018-08-27T10:52:33.695Z,97196.92
2018-08-27T10:55:02.292Z,97201.47
2018-08-27T10:57:30.868Z,97202.46
2018-08-27T10:59:59.483Z,97209.44
2018-08-27T11:02:28.164Z,97203.41
2018-08-27T11:04:56.707Z,97207.45
2018-08-27T11:07:25.891Z,97204.48
2018-08-27T11:09:56.343Z,97204.59
2018-08-27T11:12:24.887Z,97205.53
2018-08-27T11:14:53.444Z,97208.80
2018-08-27T11:17:22.723Z,97208.49
2018-08-27T11:19:51.453Z,97205.64
2018-08-27T11:22:19.976Z,97209.41
2018-08-27T11:24:48.791Z,97202.42
2018-08-27T11:27:17.353Z,97205.48
2018-08-27T11:29:45.892Z,97197.31
2018-08-27T11:32:14.569Z,97214.66
2018-08-27T11:34:43.123Z,97213.20
2018-08-27T11:37:11.663Z,97220.16
2018-08-27T11:39:40.336Z,97222.25
2018-08-27T11:42:08.880Z,97227.09
2018-08-27T11:44:37.420Z,97229.95
2018-08-27T11:47:06.336Z,97224.31
2018-08-27T11:49:34.899Z,97224.52
2018-08-27T11:52:03.463Z,97230.16
2018-08-27T11:54:32.407Z,97233.77
2018-08-27T11:57:00.955Z,97234.93
2018-08-27T11:59:29.528Z,97236.92
2018-08-27T12:01:58.156Z,97232.47
2018-08-27T12:04:26.771Z,97228.78
2018-08-27T12:06:55.364Z,97235.20
2018-08-27T12:09:24.316Z,97228.12
2018-08-27T12:11:52.883Z,97228.23
2018-08-27T12:14:21.447Z,97231.48
2018-08-27T12:16:50.203Z,97221.52
2018-08-27T12:19:18.715Z,97220.50
2018-08-27T12:21:47.267Z,97220.81
2018-08-27T12:24:15.860Z,97221.43
2018-08-27T12:26:44.444Z,97214.39
2018-08-27T12:29:13.011Z,97215.78
2018-08-27T12:31:41.585Z,97214.94
2018-08-27T12:34:10.147Z,97214.30
2018-08-27T12:36:38.727Z,97213.83
2018-08-27T12:39:09.180Z,97216.20
2018-08-27T12:41:37.808Z,97218.09
2018-08-27T12:44:06.389Z,97213.58
2018-08-27T12:46:35.111Z,97216.58
2018-08-27T12:49:03.655Z,97212.67
2018-08-27T12:51:32.219Z,97217.28
2018-08-27T12:54:00.943Z,97219.11
2018-08-27T12:56:29.499Z,97216.70
2018-08-27T12:58:58.137Z,97216.06
2018-08-27T13:01:26.936Z,97214.30
2018-08-27T13:03:55.531Z,97218.63
2018-08-27T13:06:24.077Z,97220.16
2018-08-27T13:08:52.932Z,97218.05
2018-08-27T13:11:21.533Z,97220.45
2018-08-27T13:13:50.091Z,97221.27
2018-08-27T13:16:18.770Z,97230.99
2018-08-27T13:18:47.334Z,97222.31
2018-08-27T13:21:21.240Z,97219.23
2018-08-27T13:23:49.788Z,97220.84
2018-08-27T13:26:18.352Z,97218.44
2018-08-27T13:28:47.307Z,97221.16
2018-08-27T13:31:15.898Z,97217.91
2018-08-27T13:33:44.744Z,97228.78
2018-08-27T13:36:13.844Z,97222.83
2018-08-27T13:38:42.467Z,97220.62
2018-08-27T13:41:11.088Z,97216.45
2018-08-27T13:43:40.032Z,97219.34
2018-08-27T13:46:08.813Z,97224.84
2018-08-27T13:48:37.400Z,97223.70
2018-08-27T13:51:06.171Z,97222.94
2018-08-27T13:53:34.727Z,97223.75
2018-08-27T13:56:03.297Z,97222.84
2018-08-27T13:58:31.897Z,97225.25
2018-08-27T14:01:00.459Z,97218.13
2018-08-27T14:03:29.023Z,97217.42
2018-08-27T14:05:58.037Z,97221.86
2018-08-27T14:08:26.579Z,97216.78
2018-08-27T14:10:55.120Z,97226.74
2018-08-27T14:13:23.700Z,97218.73
2018-08-27T14:15:52.300Z,97229.45
2018-08-27T14:18:20.804Z,97225.67
2018-08-27T14:20:49.508Z,97227.92
2018-08-27T14:23:18.056Z,97226.79
2018-08-27T14:25:46.650Z,97228.80
2018-08-27T14:28:15.294Z,97221.03
2018-08-27T14:30:43.853Z,97224.51
2018-08-27T14:33:12.452Z,97218.20
2018-08-27T14:35:41.332Z,97212.46
2018-08-27T14:38:09.822Z,97215.41
2018-08-27T14:40:38.397Z,97220.30
2018-08-27T14:43:07.282Z,97213.94
2018-08-27T14:45:35.832Z,97213.77
2018-08-27T14:48:04.536Z,97218.61
2018-08-27T14:50:33.104Z,97218.17
2018-08-27T14:53:01.641Z,97219.39
2018-08-27T14:55:30.291Z,97219.87
2018-08-27T14:57:59.307Z,97224.48
2018-08-27T15:00:27.984Z,97230.50
2018-08-27T15:02:56.527Z,97228.85
2018-08-27T15:05:25.112Z,97233.79
2018-08-27T15:07:53.664Z,97229.59
2018-08-27T15:10:22.198Z,97238.34
2018-08-27T15:12:52.593Z,97232.27
2018-08-27T15:15:21.517Z,97231.72
2018-08-27T15:17:50.069Z,97230.77
2018-08-27T15:20:18.776Z,97231.02
2018-08-27T15:22:47.331Z,97231.84
2018-08-27T15:25:15.863Z,97231.95
2018-08-27T15:27:44.447Z,97229.39
2018-08-27T15:30:12.998Z,97229.69
2018-08-27T15:32:41.543Z,97233.05
2018-08-27T15:35:10.223Z,97241.34
2018-08-27T15:37:38.777Z,97238.87
2018-08-27T15:40:07.448Z,97242.46
2018-08-27T15:42:36.067Z,97236.06
2018-08-27T15:45:06.956Z,97240.46
2018-08-27T15:47:36.747Z,97244.83
2018-08-27T15:50:05.366Z,97247.37
2018-08-27T15:52:33.919Z,97247.66
2018-08-27T15:55:02.483Z,97254.44
2018-08-27T15:57:31.128Z,97256.50
2018-08-27T15:59:59.672Z,97253.43
2018-08-27T16:02:28.528Z,97265.86
2018-08-27T16:04:57.157Z,97260.33
2018-08-27T16:07:25.718Z,97263.72
2018-08-27T16:09:54.691Z,97260.72
2018-08-27T16:12:23.227Z,97262.08
2018-08-27T16:14:51.782Z,97260.44
2018-08-27T16:17:20.448Z,97255.06
2018-08-27T16:19:49.000Z,97261.65
2018-08-27T16:22:17.572Z,97262.41
2018-08-27T16:24:46.374Z,97263.42
2018-08-27T16:27:14.911Z,97263.95
2018-08-27T16:29:43.488Z,97264.23
2018-08-27T16:32:12.547Z,97274.95
2018-08-27T16:34:41.563Z,97277.95
2018-08-27T16:37:11.036Z,97280.45
2018-08-27T16:39:39.703Z,97275.59
2018-08-27T16:42:08.212Z,97274.20
2018-08-27T16:44:36.768Z,97272.37
2018-08-27T16:47:05.351Z,97279.60
2018-08-27T16:49:33.907Z,97283.02
2018-08-27T16:52:02.466Z,97281.72
2018-08-27T16:54:31.268Z,97285.66
2018-08-27T16:56:59.828Z,97289.27
2018-08-27T16:59:29.263Z,97286.52
2018-08-27T17:01:58.237Z,97281.81
2018-08-27T17:04:26.792Z,97285.70
2018-08-27T17:06:55.332Z,97291.95
2018-08-27T17:09:24.004Z,97291.95
2018-08-27T17:11:52.547Z,97291.94
2018-08-27T17:14:21.100Z,97307.70
2018-08-27T17:16:49.678Z,97303.24
2018-08-27T17:19:18.322Z,97308.11
2018-08-27T17:21:47.199Z,97318.08
2018-08-27T17:24:16.052Z,97314.47
2018-08-27T17:26:45.115Z,97320.05
2018-08-27T17:29:14.348Z,97327.34
2018-08-27T17:31:42.930Z,97329.73
2018-08-27T17:34:11.476Z,97328.91
2018-08-27T17:36:40.171Z,97335.38
2018-08-27T17:39:10.870Z,97333.42
2018-08-27T17:41:40.371Z,97339.41
2018-08-27T17:44:09.817Z,97342.34
2018-08-27T17:46:38.471Z,97343.44
2018-08-27T17:49:07.016Z,97341.52
2018-08-27T17:51:35.576Z,97341.19
2018-08-27T17:54:04.451Z,97335.91
2018-08-27T17:56:33.011Z,97337.67
2018-08-27T17:59:01.623Z,97336.80
2018-08-27T18:01:30.540Z,97341.04
2018-08-27T18:03:59.176Z,97333.70
2018-08-27T18:06:27.740Z,97345.69
2018-08-27T18:08:56.435Z,97341.70
2018-08-27T18:11:24.991Z,97351.45
2018-08-27T18:13:53.543Z,97356.12
2018-08-27T18:16:22.147Z,97362.70
2018-08-27T18:18:50.718Z,97362.48
2018-08-27T18:21:19.276Z,97366.52
2018-08-27T18:23:47.852Z,97366.52
2018-08-27T18:26:16.411Z,97379.80
2018-08-27T18:28:44.972Z,97374.06
2018-08-27T18:31:13.820Z,97377.84
2018-08-27T18:33:42.382Z,97387.14
2018-08-27T18:36:10.946Z,97396.39
2018-08-27T18:38:39.548Z,97397.73
2018-08-27T18:41:08.104Z,97396.66
2018-08-27T18:43:36.672Z,97399.97
2018-08-27T18:46:05.538Z,97400.41
2018-08-27T18:48:34.119Z,97404.14
2018-08-27T18:51:02.776Z,97410.39
2018-08-27T18:53:31.550Z,97413.33
2018-08-27T18:56:00.117Z,97419.53
2018-08-27T18:58:28.716Z,97420.00
2018-08-27T19:00:57.395Z,97426.66
2018-08-27T19:03:26.000Z,97425.23
2018-08-27T19:05:54.552Z,97426.31
2018-08-27T19:08:23.411Z,97435.13
2018-08-27T19:10:52.000Z,97437.03
2018-08-27T19:13:20.679Z,97440.33
2018-08-27T19:15:49.256Z,97445.86
2018-08-27T19:18:17.815Z,97446.72
2018-08-27T19:20:46.472Z,97447.14
2018-08-27T19:23:15.044Z,97444.81
2018-08-27T19:25:43.568Z,97448.91
2018-08-27T19:28:12.112Z,97451.16
2018-08-27T19:30:40.772Z,97446.03
2018-08-27T19:33:09.324Z,97450.03
2018-08-27T19:35:37.922Z,97450.52
2018-08-27T19:38:06.823Z,97459.66
2018-08-27T19:40:35.387Z,97462.84
2018-08-27T19:43:04.007Z,97462.52
2018-08-27T19:45:32.563Z,97461.27
2018-08-27T19:48:01.116Z,97466.91
2018-08-27T19:50:29.672Z,97463.14
2018-08-27T19:52:58.268Z,97461.50
2018-08-27T19:55:26.819Z,97469.72
2018-08-27T19:57:55.503Z,97468.44
2018-08-27T20:00:24.388Z,97472.09
2018-08-27T20:02:53.391Z,97469.06
2018-08-27T20:05:21.971Z,97472.09
2018-08-27T20:07:50.591Z,97475.84
2018-08-27T20:10:19.139Z,97481.73
2018-08-27T20:12:47.712Z,97485.02
2018-08-27T20:15:16.619Z,97481.72
2018-08-27T20:17:45.205Z,97471.65
2018-08-27T20:20:13.832Z,97469.80
2018-08-27T20:22:42.675Z,97465.09
2018-08-27T20:25:11.240Z,97463.32
2018-08-27T20:27:39.801Z,97473.39
2018-08-27T20:30:08.435Z,97474.81
2018-08-27T20:32:36.979Z,97467.88
2018-08-27T20:35:05.567Z,97464.16
2018-08-27T20:37:34.301Z,97473.73
2018-08-27T20:40:02.848Z,97475.74
2018-08-27T20:42:31.397Z,97474.69
2018-08-27T20:45:00.318Z,97473.86
2018-08-27T20:47:29.343Z,97486.51
2018-08-27T20:49:57.892Z,97491.66
2018-08-27T20:52:26.816Z,97493.17
2018-08-27T20:54:55.367Z,97500.52
2018-08-27T20:57:23.992Z,97500.34
2018-08-27T20:59:52.539Z,97500.98
2018-08-27T21:02:21.329Z,97494.80
2018-08-27T21:04:49.894Z,97494.56
2018-08-27T21:07:18.548Z,97494.01
2018-08-27T21:09:47.423Z,97487.76
2018-08-27T21:12:16.000Z,97490.97
2018-08-27T21:15:07.890Z,97492.36
2018-08-27T21:17:37.023Z,97487.53
2018-08-27T21:20:06.678Z,97491.55
2018-08-27T21:22:35.633Z,97495.53
2018-08-27T21:25:05.142Z,97490.52
2018-08-27T21:27:34.204Z,97493.81
2018-08-27T21:30:02.907Z,97506.97
2018-08-27T21:32:31.457Z,97511.84
2018-08-27T21:35:00.042Z,97509.80
2018-08-27T21:37:28.699Z,97516.08
2018-08-27T21:39:57.210Z,97514.19
2018-08-27T21:42:25.783Z,97511.73
2018-08-27T21:44:54.388Z,97519.58
2018-08-27T21:47:22.972Z,97520.86
2018-08-27T21:49:51.515Z,97523.19
2018-08-27T21:52:20.127Z,97526.70
2018-08-27T21:54:48.703Z,97520.95
2018-08-27T21:57:17.464Z,97520.25
2018-08-27T21:59:46.145Z,97524.20
2018-08-27T22:02:19.891Z,97523.13
2018-08-27T22:04:48.656Z,97520.77
2018-08-27T22:07:17.267Z,97521.94
2018-08-27T22:09:45.808Z,97525.27
2018-08-27T22:12:14.389Z,97523.58
2018-08-27T22:14:42.931Z,97533.45
2018-08-27T22:17:11.492Z,97529.35
2018-08-27T22:19:40.791Z,97531.14
2018-08-27T22:22:09.450Z,97532.17
2018-08-27T22:24:37.939Z,97538.60
2018-08-27T22:27:06.717Z,97539.18
2018-08-27T22:29:35.307Z,97538.19
2018-08-27T22:32:03.878Z,97538.27
2018-08-27T22:34:32.472Z,97534.58
2018-08-27T22:37:01.011Z,97546.02
2018-08-27T22:39:29.584Z,97549.37
2018-08-27T22:41:58.227Z,97554.39
2018-08-27T22:44:26.804Z,97559.93
2018-08-27T22:46:55.359Z,97563.90
2018-08-27T22:49:23.959Z,97566.02
2018-08-27T22:51:52.543Z,97569.29
2018-08-27T22:54:21.101Z,97572.23
2018-08-27T22:56:49.760Z,97572.31
2018-08-27T22:59:18.323Z,97566.60
2018-08-27T23:01:46.947Z,97569.91
2018-08-27T23:04:21.020Z,97562.82
2018-08-27T23:06:49.559Z,97565.76
2018-08-27T23:09:18.116Z,97562.91
2018-08-27T23:11:46.784Z,97564.56
2018-08-27T23:14:15.331Z,97562.11
2018-08-27T23:16:43.883Z,97563.02
2018-08-27T23:19:12.803Z,97561.08
2018-08-27T23:21:41.404Z,97562.45
2018-08-27T23:24:09.951Z,97570.78
2018-08-27T23:26:38.876Z,97572.06
2018-08-27T23:29:07.439Z,97571.86
2018-08-27T23:31:35.995Z,97573.52
2018-08-27T23:34:04.588Z,97566.89
2018-08-27T23:36:33.147Z,97572.78
2018-08-27T23:39:01.744Z,97580.41
2018-08-27T23:41:30.464Z,97580.66
2018-08-27T23:43:59.004Z,97574.69
2018-08-27T23:46:27.547Z,97573.20
2018-08-27T23:48:56.459Z,97569.14
2018-08-27T23:51:24.999Z,97578.80
2018-08-27T23:53:53.543Z,97584.34
2018-08-27T23:56:22.123Z,97584.30
2018-08-27T23:58:50.687Z,97588.31
